createdAt,value
2023-02-23T00:09:37.087Z,86.45
2023-02-23T00:13:24.611Z,86.06
2023-02-23T00:17:12.462Z,85.42
2023-02-23T00:20:55.429Z,85.33
2023-02-23T00:24:45.740Z,85.64
2023-02-23T00:28:33.564Z,85.98
2023-02-23T00:32:23.379Z,86.21
2023-02-23T00:39:58.217Z,86.33
2023-02-23T00:47:33.380Z,86.04
2023-02-23T00:51:20.469Z,86.28
2023-02-23T00:55:09.041Z,86.34
2023-02-23T00:58:55.288Z,86.53
2023-02-23T01:02:42.957Z,86.59
2023-02-23T01:06:30.926Z,86.62
2023-02-23T01:10:18.538Z,86.73
2023-02-23T01:14:06.047Z,86.80
2023-02-23T01:17:53.707Z,86.69
2023-02-23T01:21:41.469Z,86.50
2023-02-23T01:25:29.704Z,86.32
2023-02-23T01:37:38.395Z,85.33
2023-02-23T01:41:25.927Z,85.78
2023-02-23T01:45:13.708Z,85.69
2023-02-23T02:00:54.356Z,86.50
2023-02-23T02:04:43.414Z,86.52
2023-02-23T02:08:32.819Z,86.46
2023-02-23T02:12:22.160Z,86.46
2023-02-23T02:16:11.149Z,86.48
2023-02-23T02:20:08.392Z,86.50
2023-02-23T02:32:20.393Z,86.79
2023-02-23T02:36:31.053Z,86.75
2023-02-23T02:40:44.391Z,86.58
2023-02-23T02:44:32.989Z,86.64
2023-02-23T02:56:51.496Z,86.97
2023-02-23T03:00:45.531Z,86.95
2023-02-23T03:04:32.885Z,86.49
2023-02-23T03:08:19.146Z,86.42
2023-02-23T03:12:07.458Z,86.45
2023-02-23T03:16:00.781Z,86.52
2023-02-23T03:20:00.383Z,86.48
2023-02-23T03:24:03.727Z,86.52
2023-02-23T03:43:44.802Z,86.78
2023-02-23T03:47:32.227Z,86.75
2023-02-23T03:51:22.791Z,86.56
2023-02-23T03:55:13.298Z,86.56
2023-02-23T03:58:40.441Z,86.49
2023-02-23T04:02:28.047Z,86.49
2023-02-23T04:06:15.250Z,86.39
2023-02-23T04:10:02.922Z,86.41
2023-02-23T04:13:43.570Z,86.21
2023-02-23T04:17:12.466Z,86.16
2023-02-23T04:21:01.994Z,85.94
2023-02-23T04:24:49.830Z,86.05
2023-02-23T04:28:39.943Z,86.04
2023-02-23T04:32:28.001Z,86.15
2023-02-23T04:36:18.803Z,86.19
2023-02-23T04:40:07.709Z,86.31
2023-02-23T04:43:56.756Z,86.39
2023-02-23T04:47:45.895Z,86.47
2023-02-23T04:51:35.213Z,86.40
2023-02-23T04:55:24.197Z,86.48
2023-02-23T04:59:13.272Z,86.48
2023-02-23T05:03:02.250Z,86.45
2023-02-23T05:06:51.488Z,86.46
2023-02-23T05:10:40.564Z,86.34
2023-02-23T05:14:29.677Z,86.31
2023-02-23T05:18:18.608Z,86.41
2023-02-23T05:22:07.979Z,86.50
2023-02-23T05:25:28.964Z,86.53
2023-02-23T05:28:53.291Z,86.61
2023-02-23T05:32:42.561Z,86.40
2023-02-23T05:35:52.575Z,86.47
2023-02-23T05:39:41.545Z,86.58
2023-02-23T05:42:13.246Z,86.71
2023-02-23T05:45:44.889Z,86.77
2023-02-23T05:49:17.224Z,86.81
2023-02-23T05:52:40.458Z,86.91
2023-02-23T05:55:50.326Z,87.04
2023-02-23T05:58:20.876Z,87.07
2023-02-23T06:01:12.096Z,87.25
2023-02-23T06:04:24.830Z,87.37
2023-02-23T06:08:03.924Z,87.29
2023-02-23T06:11:33.815Z,87.20
2023-02-23T06:14:32.841Z,87.03
2023-02-23T06:18:21.964Z,87.00
2023-02-23T06:21:30.935Z,86.68
2023-02-23T06:24:53.662Z,86.20
2023-02-23T06:28:16.192Z,86.81
2023-02-23T06:31:58.442Z,87.13
2023-02-23T07:08:07.625Z,87.08
2023-02-23T07:11:06.432Z,87.07
2023-02-23T07:14:01.124Z,86.98
2023-02-23T07:16:38.232Z,86.75
2023-02-23T07:19:45.986Z,86.40
2023-02-23T07:22:28.841Z,86.30
2023-02-23T07:25:04.393Z,86.16
2023-02-23T07:28:34.509Z,86.15
2023-02-23T07:32:01.971Z,86.12
2023-02-23T07:35:22.692Z,86.19
2023-02-23T07:38:33.741Z,85.83
2023-02-23T07:42:12.314Z,85.98
2023-02-23T07:45:52.977Z,85.79
2023-02-23T07:49:40.760Z,85.74
2023-02-23T07:53:17.773Z,85.56
2023-02-23T07:57:05.558Z,85.71
2023-02-23T08:03:51.898Z,85.37
2023-02-23T08:07:30.711Z,85.15
2023-02-23T08:11:10.789Z,85.06
2023-02-23T08:14:31.883Z,85.01
2023-02-23T08:18:20.915Z,84.95
2023-02-23T08:21:41.741Z,84.82
2023-02-23T08:25:19.164Z,84.75
2023-02-23T08:29:08.424Z,84.52
2023-02-23T08:32:50.517Z,84.28
2023-02-23T08:36:28.453Z,84.11
2023-02-23T08:40:17.878Z,84.02
2023-02-23T08:44:20.557Z,83.67
2023-02-23T08:48:41.351Z,83.73
2023-02-23T08:51:48.052Z,83.71
2023-02-23T08:55:24.541Z,83.52
2023-02-23T08:58:53.659Z,83.33
2023-02-23T09:02:42.945Z,83.10
2023-02-23T09:05:35.145Z,83.03
2023-02-23T09:09:15.882Z,82.82
2023-02-23T09:12:55.406Z,82.73
2023-02-23T09:16:24.796Z,82.50
2023-02-23T09:19:43.173Z,82.44
2023-02-23T09:22:51.057Z,82.28
2023-02-23T09:26:20.179Z,81.87
2023-02-23T09:29:52.800Z,81.88
2023-02-23T09:33:30.168Z,81.82
2023-02-23T09:37:11.010Z,81.45
2023-02-23T09:41:00.225Z,81.22
2023-02-23T09:56:16.693Z,78.47
2023-02-23T10:00:07.467Z,78.82
2023-02-23T10:03:59.031Z,78.70
2023-02-23T10:07:59.461Z,77.90
2023-02-23T10:12:08.196Z,77.54
2023-02-23T10:15:49.642Z,77.18
2023-02-23T10:33:22.130Z,72.55
2023-02-23T10:37:06.863Z,72.88
2023-02-23T10:40:04.226Z,72.74
2023-02-23T10:42:44.212Z,72.52
2023-02-23T10:46:14.829Z,72.80
2023-02-23T10:49:48.382Z,72.71
2023-02-23T11:01:49.100Z,71.50
2023-02-23T11:05:41.476Z,71.82
2023-02-23T11:09:46.559Z,71.52
2023-02-23T11:28:03.174Z,68.77
2023-02-23T11:31:32.298Z,69.08
2023-02-23T11:34:32.449Z,68.36
2023-02-23T11:38:12.733Z,67.51
2023-02-23T11:42:04.568Z,66.52
2023-02-23T11:45:56.260Z,66.09
2023-02-23T11:49:48.218Z,66.08
2023-02-23T11:53:09.404Z,64.59
2023-02-23T12:00:55.293Z,61.75
2023-02-23T12:05:10.051Z,61.58
2023-02-23T12:09:07.882Z,62.23
2023-02-23T12:13:03.684Z,62.23
2023-02-23T12:24:57.809Z,59.11
2023-02-23T12:29:23.088Z,60.01
2023-02-23T12:33:15.452Z,59.57
2023-02-23T12:37:05.368Z,59.79
2023-02-23T12:48:53.045Z,57.89
2023-02-23T12:53:00.523Z,57.39
2023-02-23T12:57:04.685Z,55.73
2023-02-23T13:00:57.277Z,56.92
2023-02-23T13:13:12.991Z,52.27
2023-02-23T13:17:16.836Z,53.82
2023-02-23T13:21:22.243Z,51.26
2023-02-23T13:32:52.120Z,54.42
2023-02-23T13:36:31.152Z,54.54
2023-02-23T13:40:05.869Z,54.77
2023-02-23T13:43:10.061Z,55.11
2023-02-23T13:46:21.958Z,55.75
2023-02-23T13:50:17.184Z,56.12
2023-02-23T13:54:10.969Z,56.39
2023-02-23T14:16:48.416Z,59.71
2023-02-23T14:20:51.334Z,59.97
2023-02-23T14:25:03.291Z,60.28
2023-02-23T14:37:13.236Z,60.77
2023-02-23T14:41:02.554Z,61.14
2023-02-23T14:44:54.599Z,61.18
2023-02-23T14:48:27.463Z,61.40
2023-02-23T15:04:02.807Z,63.02
2023-02-23T15:08:06.906Z,63.07
2023-02-23T15:11:53.415Z,63.19
2023-02-23T15:15:35.152Z,63.55
2023-02-23T15:18:34.670Z,63.89
2023-02-23T15:22:09.434Z,63.81
2023-02-23T16:23:08.722Z,67.34
2023-02-23T16:26:58.493Z,67.58
2023-02-23T16:42:46.426Z,68.32
2023-02-23T16:46:38.190Z,68.23
2023-02-23T17:02:07.201Z,68.83
2023-02-23T17:05:56.325Z,69.08
2023-02-23T17:09:45.491Z,69.00
2023-02-23T17:13:36.784Z,69.18
2023-02-23T17:33:01.547Z,69.29
2023-02-23T17:36:50.921Z,69.28
2023-02-23T17:40:39.995Z,69.18
2023-02-23T17:44:29.104Z,69.39
2023-02-23T17:48:18.282Z,69.26
2023-02-23T17:52:07.243Z,69.24
2023-02-23T17:55:56.405Z,69.46
2023-02-23T17:59:46.423Z,69.50
2023-02-23T18:03:35.487Z,69.55
2023-02-23T18:07:24.544Z,69.63
2023-02-23T18:11:07.091Z,69.64
2023-02-23T18:14:56.171Z,69.62
2023-02-23T18:18:45.164Z,69.88
2023-02-23T18:22:34.168Z,69.79
2023-02-23T18:26:25.131Z,70.02
2023-02-23T18:30:15.957Z,70.10
2023-02-23T18:34:05.272Z,70.15
2023-02-23T18:37:54.743Z,70.20
2023-02-23T18:41:44.143Z,70.32
2023-02-23T18:45:33.248Z,70.40
2023-02-23T18:49:22.291Z,70.42
2023-02-23T18:53:12.409Z,70.41
2023-02-23T18:57:01.675Z,70.52
2023-02-23T19:00:51.307Z,70.70
2023-02-23T19:04:40.567Z,70.63
2023-02-23T19:08:30.064Z,70.65
2023-02-23T19:12:19.776Z,70.58
2023-02-23T19:16:12.836Z,70.56
2023-02-23T19:20:02.425Z,70.68
2023-02-23T19:23:50.371Z,70.72
2023-02-23T19:27:40.113Z,70.76
2023-02-23T19:31:29.597Z,70.75
2023-02-23T19:35:19.728Z,70.93
2023-02-23T19:39:11.043Z,71.10
2023-02-23T19:43:01.351Z,71.26
2023-02-23T19:46:52.799Z,71.26
2023-02-23T19:54:55.774Z,71.28
2023-02-23T19:58:42.254Z,71.35
2023-02-23T20:02:22.773Z,71.35
2023-02-23T20:06:14.487Z,71.43
2023-02-23T20:10:02.346Z,71.48
2023-02-23T20:13:45.386Z,71.52
2023-02-23T20:17:27.612Z,71.40
2023-02-23T20:36:44.996Z,71.51
2023-02-23T20:40:43.229Z,71.46
2023-02-23T20:44:32.526Z,71.52
2023-02-23T20:48:21.779Z,71.44
2023-02-23T20:52:04.940Z,71.48
2023-02-23T20:55:56.182Z,71.39
2023-02-23T20:59:46.886Z,71.40
2023-02-23T21:03:37.692Z,71.32
2023-02-23T21:07:26.999Z,71.32
2023-02-23T21:11:16.550Z,71.29
2023-02-23T21:15:05.008Z,71.28
2023-02-23T21:18:54.091Z,71.30
2023-02-23T21:22:46.995Z,71.26
2023-02-23T21:26:36.264Z,71.22
2023-02-23T21:30:25.508Z,71.09
2023-02-23T21:34:14.615Z,71.01
2023-02-23T21:38:04.230Z,70.93
2023-02-23T21:41:53.568Z,70.76
2023-02-23T21:45:42.918Z,70.65
2023-02-23T21:49:24.849Z,70.58
2023-02-23T21:53:15.635Z,70.60
2023-02-23T21:57:07.445Z,70.60
2023-02-23T22:00:56.555Z,70.42
2023-02-23T22:04:46.509Z,70.42
2023-02-23T22:08:17.458Z,70.25
2023-02-23T22:15:55.353Z,70.26
2023-02-23T22:39:10.022Z,69.99
2023-02-23T22:42:59.079Z,69.86
2023-02-23T22:46:40.983Z,69.68
2023-02-23T22:50:29.875Z,69.60
2023-02-23T22:54:19.674Z,69.42
2023-02-23T22:58:38.003Z,69.45
2023-02-23T23:02:27.494Z,69.50
2023-02-23T23:06:16.586Z,69.42
2023-02-23T23:10:05.720Z,69.33
2023-02-23T23:37:04.510Z,69.89
2023-02-23T23:40:53.639Z,70.03
2023-02-23T23:44:42.797Z,70.15
2023-02-23T23:48:31.816Z,70.31
2023-02-23T23:52:21.219Z,70.53
